Aérodrome :
LOGIN :

S'inscrire | Disclaimer

   EN    FR    IT 

 










Légende :    VFR   VFR Marginal   IFR   IFR Intensif   IFR Très Intensif
Visi : 
Plafond : 
>= 8 km
>= 3000ft
5 à 8 km
1000 à 3000 ft
1500m à 5 km
500 à 1000 ft
800 à 1500m
200 à 500 ft
< 800m
< 200 ft
Symboles :   Orages  Brouillard  Fortes neiges  Fortes précipitations  Vent > 20 kt
SIGMETs :   Divers  Orages  Givrage  Turbulence  Onde Orograph.  Cendres Volcan.







- Altitude de l'aérodrome : 370 ft


EBBE - Beauvechain AB

DERNIER METAR :
  • 191455Z 34007KT 9999 FEW060 SCT270 27/09 Q1017 BLU BLU

METARs EXPIRÉS :
  • 191355Z 36004KT 9999 FEW055 BKN270 26/09 Q1018 BLU BLU
  • 191325Z 28005KT 9999 FEW050 BKN270 26/10 Q1018 BLU BLU
  • 191255Z 04004KT 9999 FEW050 BKN270 26/09 Q1018 BLU BLU
  • 191225Z 01003KT 9999 FEW045 SCT060 BKN270 26/09 Q1018 BLU BLU

TAF TAF EBBE
Valide du 19 à 13h jusqu'au 19 à 22h UTC


191141Z 1913/1922 33005KT 9999 FEW040 SCT300
Pas de NOTAMs connus pour ce terrain.



MET'MAP, la Météo Aéronautique d'un coup d'oeil ! - Copyright ORBIFLY Décembre 2007 - Disclaimer

ORBIFLY MET'MAP TEAM :

Programmation & Développement : Alexandra Zaïnal
Conception & Développement : Baudouin d'Aumeries
Co-Programmation & Développement : Marc-Olivier Méhu
Soutien technique & logistique : Manuel Goepfert

Contact : metmap@orbifly.com




SOURCES & CREDITS :

   NOAA